sensor_id;sensor_type;location;lat;lon;timestamp;temperature;humidity
33699;DHT22;20032;52.436;13.312;2022-08-18T00:01:35;25.20;99.90
33699;DHT22;20032;52.436;13.312;2022-08-18T00:04:01;25.20;99.90
33699;DHT22;20032;52.436;13.312;2022-08-18T00:06:28;25.10;99.90
33699;DHT22;20032;52.436;13.312;2022-08-18T00:08:54;25.10;99.90
33699;DHT22;20032;52.436;13.312;2022-08-18T00:11:19;25.10;99.90
33699;DHT22;20032;52.436;13.312;2022-08-18T00:13:45;25.00;99.90
33699;DHT22;20032;52.436;13.312;2022-08-18T00:16:10;25.00;99.90
33699;DHT22;20032;52.436;13.312;2022-08-18T00:18:36;25.00;99.90
33699;DHT22;20032;52.436;13.312;2022-08-18T00:21:01;25.00;99.90
33699;DHT22;20032;52.436;13.312;2022-08-18T00:23:27;24.90;99.90
33699;DHT22;20032;52.436;13.312;2022-08-18T00:25:56;24.90;99.90
33699;DHT22;20032;52.436;13.312;2022-08-18T00:28:24;24.90;99.90
33699;DHT22;20032;52.436;13.312;2022-08-18T00:30:50;24.90;99.90
33699;DHT22;20032;52.436;13.312;2022-08-18T00:33:15;24.80;99.90
33699;DHT22;20032;52.436;13.312;2022-08-18T00:35:40;24.80;99.90
33699;DHT22;20032;52.436;13.312;2022-08-18T00:38:07;24.90;99.90
33699;DHT22;20032;52.436;13.312;2022-08-18T00:40:39;24.90;99.90
33699;DHT22;20032;52.436;13.312;2022-08-18T00:43:07;24.90;99.90
33699;DHT22;20032;52.436;13.312;2022-08-18T00:45:40;24.80;99.90
33699;DHT22;20032;52.436;13.312;2022-08-18T00:48:09;24.70;99.90
33699;DHT22;20032;52.436;13.312;2022-08-18T00:50:48;24.70;99.90
33699;DHT22;20032;52.436;13.312;2022-08-18T00:53:26;24.70;99.90
33699;DHT22;20032;52.436;13.312;2022-08-18T00:55:56;24.70;99.90
33699;DHT22;20032;52.436;13.312;2022-08-18T00:58:28;24.70;99.90
33699;DHT22;20032;52.436;13.312;2022-08-18T01:00:55;24.60;99.90
33699;DHT22;20032;52.436;13.312;2022-08-18T01:03:21;24.70;99.90
33699;DHT22;20032;52.436;13.312;2022-08-18T01:05:55;24.70;99.90
33699;DHT22;20032;52.436;13.312;2022-08-18T01:08:22;24.60;99.90
33699;DHT22;20032;52.436;13.312;2022-08-18T01:10:48;24.60;99.90
33699;DHT22;20032;52.436;13.312;2022-08-18T01:13:14;24.50;99.90
33699;DHT22;20032;52.436;13.312;2022-08-18T01:15:40;24.50;99.90
33699;DHT22;20032;52.436;13.312;2022-08-18T01:18:10;24.50;99.90
33699;DHT22;20032;52.436;13.312;2022-08-18T01:21:07;24.50;99.90
33699;DHT22;20032;52.436;13.312;2022-08-18T01:23:55;24.50;99.90
33699;DHT22;20032;52.436;13.312;2022-08-18T01:26:22;24.50;99.90
33699;DHT22;20032;52.436;13.312;2022-08-18T01:28:48;24.50;99.90
33699;DHT22;20032;52.436;13.312;2022-08-18T01:31:34;24.40;99.90
33699;DHT22;20032;52.436;13.312;2022-08-18T01:34:03;24.40;99.90
33699;DHT22;20032;52.436;13.312;2022-08-18T01:36:29;24.50;99.90
33699;DHT22;20032;52.436;13.312;2022-08-18T01:38:55;24.50;99.90
33699;DHT22;20032;52.436;13.312;2022-08-18T01:41:21;24.50;99.90
33699;DHT22;20032;52.436;13.312;2022-08-18T01:43:48;24.50;99.90
33699;DHT22;20032;52.436;13.312;2022-08-18T01:46:17;24.40;99.90
33699;DHT22;20032;52.436;13.312;2022-08-18T01:48:44;24.40;99.90
33699;DHT22;20032;52.436;13.312;2022-08-18T01:51:10;24.30;99.90
33699;DHT22;20032;52.436;13.312;2022-08-18T01:53:37;24.30;99.90
33699;DHT22;20032;52.436;13.312;2022-08-18T01:56:03;24.30;99.90
33699;DHT22;20032;52.436;13.312;2022-08-18T01:58:31;24.20;99.90
33699;DHT22;20032;52.436;13.312;2022-08-18T02:00:58;24.30;99.90
33699;DHT22;20032;52.436;13.312;2022-08-18T02:03:31;24.20;99.90
33699;DHT22;20032;52.436;13.312;2022-08-18T02:06:00;24.10;99.90
33699;DHT22;20032;52.436;13.312;2022-08-18T02:08:26;24.10;99.90
33699;DHT22;20032;52.436;13.312;2022-08-18T02:10:52;24.00;99.90
33699;DHT22;20032;52.436;13.312;2022-08-18T02:13:17;24.00;99.90
33699;DHT22;20032;52.436;13.312;2022-08-18T02:15:43;24.00;99.90
33699;DHT22;20032;52.436;13.312;2022-08-18T02:18:14;23.90;99.90
33699;DHT22;20032;52.436;13.312;2022-08-18T02:20:39;23.80;99.90
33699;DHT22;20032;52.436;13.312;2022-08-18T02:23:05;23.70;99.90
33699;DHT22;20032;52.436;13.312;2022-08-18T02:25:30;23.70;99.90
33699;DHT22;20032;52.436;13.312;2022-08-18T02:27:56;23.60;99.90
33699;DHT22;20032;52.436;13.312;2022-08-18T02:30:22;23.60;99.90
33699;DHT22;20032;52.436;13.312;2022-08-18T02:32:48;23.50;99.90
33699;DHT22;20032;52.436;13.312;2022-08-18T02:35:14;23.50;99.90
33699;DHT22;20032;52.436;13.312;2022-08-18T02:37:40;23.40;99.90
33699;DHT22;20032;52.436;13.312;2022-08-18T02:40:07;23.30;99.90
33699;DHT22;20032;52.436;13.312;2022-08-18T02:42:32;23.20;99.90
33699;DHT22;20032;52.436;13.312;2022-08-18T02:44:58;23.10;99.90
33699;DHT22;20032;52.436;13.312;2022-08-18T02:47:24;23.10;99.90
33699;DHT22;20032;52.436;13.312;2022-08-18T02:49:49;23.10;99.90
33699;DHT22;20032;52.436;13.312;2022-08-18T02:52:16;23.10;99.90
33699;DHT22;20032;52.436;13.312;2022-08-18T02:54:42;22.90;99.90
33699;DHT22;20032;52.436;13.312;2022-08-18T02:57:10;22.70;99.90
33699;DHT22;20032;52.436;13.312;2022-08-18T02:59:38;22.70;99.90
33699;DHT22;20032;52.436;13.312;2022-08-18T03:02:05;22.60;99.90
33699;DHT22;20032;52.436;13.312;2022-08-18T03:04:32;22.60;99.90
33699;DHT22;20032;52.436;13.312;2022-08-18T03:07:00;22.50;99.90
33699;DHT22;20032;52.436;13.312;2022-08-18T03:09:27;22.50;99.90
33699;DHT22;20032;52.436;13.312;2022-08-18T03:11:53;22.40;99.90
33699;DHT22;20032;52.436;13.312;2022-08-18T03:14:19;22.40;99.90
33699;DHT22;20032;52.436;13.312;2022-08-18T03:16:46;22.40;99.90
33699;DHT22;20032;52.436;13.312;2022-08-18T03:19:12;22.40;99.90
33699;DHT22;20032;52.436;13.312;2022-08-18T03:21:41;22.40;99.90
33699;DHT22;20032;52.436;13.312;2022-08-18T03:24:07;22.30;99.90
33699;DHT22;20032;52.436;13.312;2022-08-18T03:26:33;22.30;99.90
33699;DHT22;20032;52.436;13.312;2022-08-18T03:29:00;22.30;99.90
33699;DHT22;20032;52.436;13.312;2022-08-18T03:31:27;22.30;99.90
33699;DHT22;20032;52.436;13.312;2022-08-18T03:33:54;22.30;99.90
33699;DHT22;20032;52.436;13.312;2022-08-18T03:36:23;22.30;99.90
33699;DHT22;20032;52.436;13.312;2022-08-18T03:38:50;22.30;99.90
33699;DHT22;20032;52.436;13.312;2022-08-18T03:41:19;22.40;99.90
33699;DHT22;20032;52.436;13.312;2022-08-18T03:43:44;22.40;99.90
33699;DHT22;20032;52.436;13.312;2022-08-18T03:46:12;22.30;99.90
33699;DHT22;20032;52.436;13.312;2022-08-18T03:48:40;22.30;99.90
33699;DHT22;20032;52.436;13.312;2022-08-18T03:51:10;22.30;99.90
33699;DHT22;20032;52.436;13.312;2022-08-18T03:53:37;22.30;99.90
33699;DHT22;20032;52.436;13.312;2022-08-18T03:56:09;22.40;99.90
33699;DHT22;20032;52.436;13.312;2022-08-18T03:58:40;22.40;99.90
33699;DHT22;20032;52.436;13.312;2022-08-18T04:01:06;22.50;99.90
33699;DHT22;20032;52.436;13.312;2022-08-18T04:03:32;22.50;99.90
33699;DHT22;20032;52.436;13.312;2022-08-18T04:05:57;22.40;99.90
33699;DHT22;20032;52.436;13.312;2022-08-18T04:08:23;22.30;99.90
33699;DHT22;20032;52.436;13.312;2022-08-18T04:10:48;22.30;99.90
33699;DHT22;20032;52.436;13.312;2022-08-18T04:13:13;22.30;99.90
33699;DHT22;20032;52.436;13.312;2022-08-18T04:15:39;22.30;99.90
33699;DHT22;20032;52.436;13.312;2022-08-18T04:18:04;22.30;99.90
33699;DHT22;20032;52.436;13.312;2022-08-18T04:20:33;22.40;99.90
33699;DHT22;20032;52.436;13.312;2022-08-18T04:22:59;22.40;99.90
33699;DHT22;20032;52.436;13.312;2022-08-18T04:25:24;22.30;99.90
33699;DHT22;20032;52.436;13.312;2022-08-18T04:27:51;22.20;99.90
33699;DHT22;20032;52.436;13.312;2022-08-18T04:30:22;22.30;99.90
33699;DHT22;20032;52.436;13.312;2022-08-18T04:32:47;22.30;99.90
33699;DHT22;20032;52.436;13.312;2022-08-18T04:35:14;22.20;99.90
33699;DHT22;20032;52.436;13.312;2022-08-18T04:37:40;22.20;99.90
33699;DHT22;20032;52.436;13.312;2022-08-18T04:40:06;22.20;99.90
33699;DHT22;20032;52.436;13.312;2022-08-18T04:42:31;22.20;99.90
33699;DHT22;20032;52.436;13.312;2022-08-18T04:44:57;22.30;99.90
33699;DHT22;20032;52.436;13.312;2022-08-18T04:47:23;22.40;99.90
33699;DHT22;20032;52.436;13.312;2022-08-18T04:49:48;22.40;99.90
33699;DHT22;20032;52.436;13.312;2022-08-18T04:52:15;22.50;99.90
33699;DHT22;20032;52.436;13.312;2022-08-18T04:55:00;22.50;99.90
33699;DHT22;20032;52.436;13.312;2022-08-18T04:57:28;22.40;99.90
33699;DHT22;20032;52.436;13.312;2022-08-18T04:59:53;22.50;99.90
33699;DHT22;20032;52.436;13.312;2022-08-18T05:02:20;22.50;99.90
33699;DHT22;20032;52.436;13.312;2022-08-18T05:04:46;22.50;99.90
33699;DHT22;20032;52.436;13.312;2022-08-18T05:07:13;22.60;99.90
33699;DHT22;20032;52.436;13.312;2022-08-18T05:09:40;22.70;99.90
33699;DHT22;20032;52.436;13.312;2022-08-18T05:12:08;22.70;99.90
33699;DHT22;20032;52.436;13.312;2022-08-18T05:14:33;22.60;99.90
33699;DHT22;20032;52.436;13.312;2022-08-18T05:17:01;22.50;99.90
33699;DHT22;20032;52.436;13.312;2022-08-18T05:19:27;22.50;99.90
33699;DHT22;20032;52.436;13.312;2022-08-18T05:21:54;22.50;99.90
33699;DHT22;20032;52.436;13.312;2022-08-18T05:24:20;22.60;99.90
33699;DHT22;20032;52.436;13.312;2022-08-18T05:26:47;22.70;99.90
33699;DHT22;20032;52.436;13.312;2022-08-18T05:29:13;22.70;99.90
33699;DHT22;20032;52.436;13.312;2022-08-18T05:31:39;22.80;99.90
33699;DHT22;20032;52.436;13.312;2022-08-18T05:34:05;22.90;99.90
33699;DHT22;20032;52.436;13.312;2022-08-18T05:36:44;22.90;99.90
33699;DHT22;20032;52.436;13.312;2022-08-18T05:39:35;22.90;99.90
33699;DHT22;20032;52.436;13.312;2022-08-18T05:42:03;23.00;99.90
33699;DHT22;20032;52.436;13.312;2022-08-18T05:44:34;23.00;99.90
33699;DHT22;20032;52.436;13.312;2022-08-18T05:47:23;23.10;99.90
33699;DHT22;20032;52.436;13.312;2022-08-18T05:49:49;23.10;99.90
33699;DHT22;20032;52.436;13.312;2022-08-18T05:52:26;23.10;99.90
33699;DHT22;20032;52.436;13.312;2022-08-18T05:55:00;23.20;99.90
33699;DHT22;20032;52.436;13.312;2022-08-18T05:57:49;23.30;99.90
33699;DHT22;20032;52.436;13.312;2022-08-18T06:00:17;23.20;99.90
33699;DHT22;20032;52.436;13.312;2022-08-18T06:02:54;23.30;99.90
33699;DHT22;20032;52.436;13.312;2022-08-18T06:05:26;23.40;99.90
33699;DHT22;20032;52.436;13.312;2022-08-18T06:07:56;23.50;99.90
33699;DHT22;20032;52.436;13.312;2022-08-18T06:10:23;23.70;99.90
33699;DHT22;20032;52.436;13.312;2022-08-18T06:12:52;23.80;99.90
33699;DHT22;20032;52.436;13.312;2022-08-18T06:18:17;23.70;99.90
33699;DHT22;20032;52.436;13.312;2022-08-18T06:23:40;23.80;99.90
33699;DHT22;20032;52.436;13.312;2022-08-18T06:26:16;23.90;99.90
33699;DHT22;20032;52.436;13.312;2022-08-18T06:28:54;23.90;99.90
33699;DHT22;20032;52.436;13.312;2022-08-18T06:31:30;23.90;99.90
33699;DHT22;20032;52.436;13.312;2022-08-18T06:34:06;23.90;99.90
33699;DHT22;20032;52.436;13.312;2022-08-18T06:39:23;24.00;99.90
33699;DHT22;20032;52.436;13.312;2022-08-18T06:41:50;24.20;99.90
33699;DHT22;20032;52.436;13.312;2022-08-18T06:44:28;24.10;99.90
33699;DHT22;20032;52.436;13.312;2022-08-18T06:47:12;24.30;99.90
33699;DHT22;20032;52.436;13.312;2022-08-18T06:49:51;24.20;99.90
33699;DHT22;20032;52.436;13.312;2022-08-18T06:52:24;24.30;99.90
33699;DHT22;20032;52.436;13.312;2022-08-18T06:54:50;24.40;99.90
33699;DHT22;20032;52.436;13.312;2022-08-18T06:57:37;24.40;99.90
33699;DHT22;20032;52.436;13.312;2022-08-18T07:00:21;24.50;99.90
33699;DHT22;20032;52.436;13.312;2022-08-18T07:02:52;24.60;99.90
33699;DHT22;20032;52.436;13.312;2022-08-18T07:05:23;24.60;99.90
33699;DHT22;20032;52.436;13.312;2022-08-18T07:08:21;24.70;99.90
33699;DHT22;20032;52.436;13.312;2022-08-18T07:10:53;24.70;99.90
33699;DHT22;20032;52.436;13.312;2022-08-18T07:13:26;24.70;99.90
33699;DHT22;20032;52.436;13.312;2022-08-18T07:16:12;24.70;99.90
33699;DHT22;20032;52.436;13.312;2022-08-18T07:18:38;24.70;99.90
33699;DHT22;20032;52.436;13.312;2022-08-18T07:21:04;24.90;99.90
33699;DHT22;20032;52.436;13.312;2022-08-18T07:26:08;25.00;99.90
33699;DHT22;20032;52.436;13.312;2022-08-18T07:28:41;25.00;99.90
33699;DHT22;20032;52.436;13.312;2022-08-18T07:31:17;25.00;99.90
33699;DHT22;20032;52.436;13.312;2022-08-18T07:33:50;25.00;99.90
33699;DHT22;20032;52.436;13.312;2022-08-18T07:36:18;25.00;99.90
33699;DHT22;20032;52.436;13.312;2022-08-18T07:38:51;25.10;99.90
33699;DHT22;20032;52.436;13.312;2022-08-18T07:41:22;25.00;99.90
33699;DHT22;20032;52.436;13.312;2022-08-18T07:43:56;25.10;99.90
33699;DHT22;20032;52.436;13.312;2022-08-18T07:49:01;25.20;99.90
33699;DHT22;20032;52.436;13.312;2022-08-18T07:57:26;25.30;99.90
33699;DHT22;20032;52.436;13.312;2022-08-18T08:00:03;25.40;99.90
33699;DHT22;20032;52.436;13.312;2022-08-18T08:05:19;25.50;99.90
33699;DHT22;20032;52.436;13.312;2022-08-18T08:07:53;25.40;99.90
33699;DHT22;20032;52.436;13.312;2022-08-18T08:10:29;25.50;99.90
33699;DHT22;20032;52.436;13.312;2022-08-18T08:13:05;25.60;99.90
33699;DHT22;20032;52.436;13.312;2022-08-18T08:15:45;25.70;99.90
33699;DHT22;20032;52.436;13.312;2022-08-18T08:18:36;25.70;99.90
33699;DHT22;20032;52.436;13.312;2022-08-18T08:21:10;25.80;99.90
33699;DHT22;20032;52.436;13.312;2022-08-18T08:26:31;25.80;99.90
33699;DHT22;20032;52.436;13.312;2022-08-18T08:30:05;25.80;99.90
33699;DHT22;20032;52.436;13.312;2022-08-18T08:31:54;25.90;99.90
33699;DHT22;20032;52.436;13.312;2022-08-18T08:37:35;25.90;99.90
33699;DHT22;20032;52.436;13.312;2022-08-18T08:42:51;25.90;99.90
33699;DHT22;20032;52.436;13.312;2022-08-18T08:45:38;25.90;99.90
33699;DHT22;20032;52.436;13.312;2022-08-18T08:48:26;25.90;99.90
33699;DHT22;20032;52.436;13.312;2022-08-18T08:51:16;26.00;99.90
33699;DHT22;20032;52.436;13.312;2022-08-18T08:53:48;26.00;99.90
33699;DHT22;20032;52.436;13.312;2022-08-18T08:56:27;26.20;99.90
33699;DHT22;20032;52.436;13.312;2022-08-18T08:58:58;26.30;99.90
33699;DHT22;20032;52.436;13.312;2022-08-18T09:06:59;26.50;99.90
33699;DHT22;20032;52.436;13.312;2022-08-18T09:10:03;26.60;99.90
33699;DHT22;20032;52.436;13.312;2022-08-18T09:12:57;26.60;99.90
33699;DHT22;20032;52.436;13.312;2022-08-18T09:21:20;27.00;99.90
33699;DHT22;20032;52.436;13.312;2022-08-18T09:23:51;27.10;99.90
33699;DHT22;20032;52.436;13.312;2022-08-18T09:26:40;27.20;99.90
33699;DHT22;20032;52.436;13.312;2022-08-18T09:29:26;27.40;99.90
33699;DHT22;20032;52.436;13.312;2022-08-18T09:35:06;28.00;99.90
33699;DHT22;20032;52.436;13.312;2022-08-18T09:37:54;28.10;99.90
33699;DHT22;20032;52.436;13.312;2022-08-18T09:40:46;28.20;99.90
33699;DHT22;20032;52.436;13.312;2022-08-18T09:46:05;28.20;99.90
33699;DHT22;20032;52.436;13.312;2022-08-18T09:48:37;28.30;99.90
33699;DHT22;20032;52.436;13.312;2022-08-18T09:51:31;28.40;99.90
33699;DHT22;20032;52.436;13.312;2022-08-18T09:54:07;28.50;99.90
33699;DHT22;20032;52.436;13.312;2022-08-18T10:02:05;28.90;99.70
33699;DHT22;20032;52.436;13.312;2022-08-18T10:04:36;28.90;99.20
33699;DHT22;20032;52.436;13.312;2022-08-18T10:10:11;29.30;98.60
33699;DHT22;20032;52.436;13.312;2022-08-18T10:12:54;29.40;98.10
33699;DHT22;20032;52.436;13.312;2022-08-18T10:18:07;29.20;98.40
33699;DHT22;20032;52.436;13.312;2022-08-18T10:20:52;29.30;99.30
33699;DHT22;20032;52.436;13.312;2022-08-18T10:23:48;29.50;98.70
33699;DHT22;20032;52.436;13.312;2022-08-18T10:29:01;30.40;96.70
33699;DHT22;20032;52.436;13.312;2022-08-18T10:31:30;30.50;96.70
33699;DHT22;20032;52.436;13.312;2022-08-18T10:34:06;30.60;95.90
33699;DHT22;20032;52.436;13.312;2022-08-18T10:36:36;30.70;95.40
33699;DHT22;20032;52.436;13.312;2022-08-18T10:39:05;30.70;94.60
33699;DHT22;20032;52.436;13.312;2022-08-18T10:41:32;30.90;94.40
33699;DHT22;20032;52.436;13.312;2022-08-18T10:44:01;31.10;93.90
33699;DHT22;20032;52.436;13.312;2022-08-18T10:46:32;31.50;92.70
33699;DHT22;20032;52.436;13.312;2022-08-18T10:49:15;31.90;91.70
33699;DHT22;20032;52.436;13.312;2022-08-18T10:52:01;32.00;91.10
33699;DHT22;20032;52.436;13.312;2022-08-18T10:54:54;32.10;91.10
33699;DHT22;20032;52.436;13.312;2022-08-18T10:57:31;32.40;91.50
33699;DHT22;20032;52.436;13.312;2022-08-18T11:05:24;32.90;89.20
33699;DHT22;20032;52.436;13.312;2022-08-18T11:07:56;32.90;88.80
33699;DHT22;20032;52.436;13.312;2022-08-18T11:10:37;33.10;89.70
33699;DHT22;20032;52.436;13.312;2022-08-18T11:13:13;33.30;87.10
33699;DHT22;20032;52.436;13.312;2022-08-18T11:15:47;33.80;88.00
33699;DHT22;20032;52.436;13.312;2022-08-18T11:18:36;33.90;85.60
33699;DHT22;20032;52.436;13.312;2022-08-18T11:24:13;34.50;83.20
33699;DHT22;20032;52.436;13.312;2022-08-18T11:29:39;34.30;82.70
33699;DHT22;20032;52.436;13.312;2022-08-18T11:37:06;34.80;82.30
33699;DHT22;20032;52.436;13.312;2022-08-18T11:39:32;34.80;80.70
33699;DHT22;20032;52.436;13.312;2022-08-18T11:41:58;34.90;81.00
33699;DHT22;20032;52.436;13.312;2022-08-18T11:44:28;35.20;78.00
33699;DHT22;20032;52.436;13.312;2022-08-18T11:47:15;35.40;77.40
33699;DHT22;20032;52.436;13.312;2022-08-18T11:49:52;35.70;78.20
33699;DHT22;20032;52.436;13.312;2022-08-18T11:52:24;35.90;74.30
33699;DHT22;20032;52.436;13.312;2022-08-18T11:54:51;35.50;77.90
33699;DHT22;20032;52.436;13.312;2022-08-18T11:57:41;35.70;77.50
33699;DHT22;20032;52.436;13.312;2022-08-18T12:00:59;35.60;76.00
33699;DHT22;20032;52.436;13.312;2022-08-18T12:03:20;34.90;76.50
33699;DHT22;20032;52.436;13.312;2022-08-18T12:05:51;34.60;78.80
33699;DHT22;20032;52.436;13.312;2022-08-18T12:08:20;34.40;78.50
33699;DHT22;20032;52.436;13.312;2022-08-18T12:10:47;34.50;75.80
33699;DHT22;20032;52.436;13.312;2022-08-18T12:13:22;34.90;76.40
33699;DHT22;20032;52.436;13.312;2022-08-18T12:16:09;35.30;74.20
33699;DHT22;20032;52.436;13.312;2022-08-18T12:18:35;35.80;73.40
33699;DHT22;20032;52.436;13.312;2022-08-18T12:21:00;36.30;71.20
33699;DHT22;20032;52.436;13.312;2022-08-18T12:23:26;36.70;69.80
33699;DHT22;20032;52.436;13.312;2022-08-18T12:25:52;36.80;69.10
33699;DHT22;20032;52.436;13.312;2022-08-18T12:28:19;36.90;67.50
33699;DHT22;20032;52.436;13.312;2022-08-18T12:30:45;37.00;66.60
33699;DHT22;20032;52.436;13.312;2022-08-18T12:33:10;37.30;66.60
33699;DHT22;20032;52.436;13.312;2022-08-18T12:35:36;38.00;65.40
33699;DHT22;20032;52.436;13.312;2022-08-18T12:38:01;38.00;63.90
33699;DHT22;20032;52.436;13.312;2022-08-18T12:40:28;38.30;66.80
33699;DHT22;20032;52.436;13.312;2022-08-18T12:42:53;38.20;68.10
33699;DHT22;20032;52.436;13.312;2022-08-18T12:45:19;37.80;70.10
33699;DHT22;20032;52.436;13.312;2022-08-18T12:47:45;37.70;69.60
33699;DHT22;20032;52.436;13.312;2022-08-18T12:50:10;37.80;69.90
33699;DHT22;20032;52.436;13.312;2022-08-18T12:52:36;38.60;67.00
33699;DHT22;20032;52.436;13.312;2022-08-18T12:55:02;39.10;68.30
33699;DHT22;20032;52.436;13.312;2022-08-18T12:57:27;38.30;66.40
33699;DHT22;20032;52.436;13.312;2022-08-18T12:59:53;38.10;69.70
33699;DHT22;20032;52.436;13.312;2022-08-18T13:02:20;38.20;68.80
33699;DHT22;20032;52.436;13.312;2022-08-18T13:04:46;38.30;66.00
33699;DHT22;20032;52.436;13.312;2022-08-18T13:07:13;38.50;65.30
33699;DHT22;20032;52.436;13.312;2022-08-18T13:09:41;38.50;65.70
33699;DHT22;20032;52.436;13.312;2022-08-18T13:12:07;38.60;65.90
33699;DHT22;20032;52.436;13.312;2022-08-18T13:14:34;38.10;66.00
33699;DHT22;20032;52.436;13.312;2022-08-18T13:17:00;37.70;66.20
33699;DHT22;20032;52.436;13.312;2022-08-18T13:19:26;37.40;68.50
33699;DHT22;20032;52.436;13.312;2022-08-18T13:21:52;37.20;66.50
33699;DHT22;20032;52.436;13.312;2022-08-18T13:24:18;36.70;67.90
33699;DHT22;20032;52.436;13.312;2022-08-18T13:26:45;37.10;67.00
33699;DHT22;20032;52.436;13.312;2022-08-18T13:29:11;37.50;65.60
33699;DHT22;20032;52.436;13.312;2022-08-18T13:31:37;37.50;64.50
33699;DHT22;20032;52.436;13.312;2022-08-18T13:34:03;37.60;65.20
33699;DHT22;20032;52.436;13.312;2022-08-18T13:36:29;37.40;67.50
33699;DHT22;20032;52.436;13.312;2022-08-18T13:39:13;37.00;67.20
33699;DHT22;20032;52.436;13.312;2022-08-18T13:41:39;36.90;66.30
33699;DHT22;20032;52.436;13.312;2022-08-18T13:44:06;36.70;66.90
33699;DHT22;20032;52.436;13.312;2022-08-18T13:46:32;36.40;66.90
33699;DHT22;20032;52.436;13.312;2022-08-18T13:48:57;36.20;65.80
33699;DHT22;20032;52.436;13.312;2022-08-18T13:51:27;36.10;66.30
33699;DHT22;20032;52.436;13.312;2022-08-18T13:53:52;35.80;69.60
33699;DHT22;20032;52.436;13.312;2022-08-18T13:56:18;35.30;67.90
33699;DHT22;20032;52.436;13.312;2022-08-18T13:58:44;34.80;70.00
33699;DHT22;20032;52.436;13.312;2022-08-18T14:01:10;34.80;70.70
33699;DHT22;20032;52.436;13.312;2022-08-18T14:03:37;34.70;68.90
33699;DHT22;20032;52.436;13.312;2022-08-18T14:06:04;34.70;68.30
33699;DHT22;20032;52.436;13.312;2022-08-18T14:08:30;34.60;69.50
33699;DHT22;20032;52.436;13.312;2022-08-18T14:10:59;34.60;70.00
33699;DHT22;20032;52.436;13.312;2022-08-18T14:13:26;34.50;70.00
33699;DHT22;20032;52.436;13.312;2022-08-18T14:15:55;34.50;70.10
33699;DHT22;20032;52.436;13.312;2022-08-18T14:18:22;34.40;69.10
33699;DHT22;20032;52.436;13.312;2022-08-18T14:20:47;34.40;70.50
33699;DHT22;20032;52.436;13.312;2022-08-18T14:23:33;34.40;69.10
33699;DHT22;20032;52.436;13.312;2022-08-18T14:26:18;34.50;70.90
33699;DHT22;20032;52.436;13.312;2022-08-18T14:29:04;34.50;71.70
33699;DHT22;20032;52.436;13.312;2022-08-18T14:31:30;34.30;72.20
33699;DHT22;20032;52.436;13.312;2022-08-18T14:33:57;34.20;71.60
33699;DHT22;20032;52.436;13.312;2022-08-18T14:36:22;34.00;73.30
33699;DHT22;20032;52.436;13.312;2022-08-18T14:38:49;34.20;72.90
33699;DHT22;20032;52.436;13.312;2022-08-18T14:41:15;34.10;72.90
33699;DHT22;20032;52.436;13.312;2022-08-18T14:43:40;34.10;73.80
33699;DHT22;20032;52.436;13.312;2022-08-18T14:46:08;34.00;74.50
33699;DHT22;20032;52.436;13.312;2022-08-18T14:48:34;34.00;74.50
33699;DHT22;20032;52.436;13.312;2022-08-18T14:51:01;34.00;75.10
33699;DHT22;20032;52.436;13.312;2022-08-18T14:53:29;34.20;75.60
33699;DHT22;20032;52.436;13.312;2022-08-18T14:55:56;34.40;73.90
33699;DHT22;20032;52.436;13.312;2022-08-18T14:58:25;34.50;73.90
33699;DHT22;20032;52.436;13.312;2022-08-18T15:00:52;34.30;73.30
33699;DHT22;20032;52.436;13.312;2022-08-18T15:03:19;34.10;74.40
33699;DHT22;20032;52.436;13.312;2022-08-18T15:05:44;33.80;75.30
33699;DHT22;20032;52.436;13.312;2022-08-18T15:08:10;33.60;75.50
33699;DHT22;20032;52.436;13.312;2022-08-18T15:10:36;33.50;75.30
33699;DHT22;20032;52.436;13.312;2022-08-18T15:13:02;33.40;76.40
33699;DHT22;20032;52.436;13.312;2022-08-18T15:15:28;33.30;76.20
33699;DHT22;20032;52.436;13.312;2022-08-18T15:17:54;33.10;76.30
33699;DHT22;20032;52.436;13.312;2022-08-18T15:20:22;33.00;78.10
33699;DHT22;20032;52.436;13.312;2022-08-18T15:22:48;32.90;76.80
33699;DHT22;20032;52.436;13.312;2022-08-18T15:25:33;32.80;77.30
33699;DHT22;20032;52.436;13.312;2022-08-18T15:28:07;32.70;76.80
33699;DHT22;20032;52.436;13.312;2022-08-18T15:30:34;32.90;76.80
33699;DHT22;20032;52.436;13.312;2022-08-18T15:33:00;32.70;77.30
33699;DHT22;20032;52.436;13.312;2022-08-18T15:35:26;32.50;78.10
33699;DHT22;20032;52.436;13.312;2022-08-18T15:37:52;32.40;78.70
33699;DHT22;20032;52.436;13.312;2022-08-18T15:40:22;32.30;78.60
33699;DHT22;20032;52.436;13.312;2022-08-18T15:42:52;32.30;79.50
33699;DHT22;20032;52.436;13.312;2022-08-18T15:45:24;32.20;80.10
33699;DHT22;20032;52.436;13.312;2022-08-18T15:47:51;32.10;80.50
33699;DHT22;20032;52.436;13.312;2022-08-18T15:50:17;32.00;81.10
33699;DHT22;20032;52.436;13.312;2022-08-18T15:52:49;31.80;79.70
33699;DHT22;20032;52.436;13.312;2022-08-18T15:55:16;31.90;80.50
33699;DHT22;20032;52.436;13.312;2022-08-18T15:57:42;31.80;81.10
33699;DHT22;20032;52.436;13.312;2022-08-18T16:00:08;31.80;81.40
33699;DHT22;20032;52.436;13.312;2022-08-18T16:02:34;31.80;79.50
33699;DHT22;20032;52.436;13.312;2022-08-18T16:05:00;31.70;80.00
33699;DHT22;20032;52.436;13.312;2022-08-18T16:07:27;31.80;79.80
33699;DHT22;20032;52.436;13.312;2022-08-18T16:09:53;31.70;80.30
33699;DHT22;20032;52.436;13.312;2022-08-18T16:12:18;31.70;81.10
33699;DHT22;20032;52.436;13.312;2022-08-18T16:14:44;31.80;80.80
33699;DHT22;20032;52.436;13.312;2022-08-18T16:17:09;31.70;80.90
33699;DHT22;20032;52.436;13.312;2022-08-18T16:19:36;31.70;81.80
33699;DHT22;20032;52.436;13.312;2022-08-18T16:22:01;31.60;81.60
33699;DHT22;20032;52.436;13.312;2022-08-18T16:24:30;31.50;81.40
33699;DHT22;20032;52.436;13.312;2022-08-18T16:26:56;31.50;81.40
33699;DHT22;20032;52.436;13.312;2022-08-18T16:29:21;31.50;80.80
33699;DHT22;20032;52.436;13.312;2022-08-18T16:31:47;31.40;82.00
33699;DHT22;20032;52.436;13.312;2022-08-18T16:34:13;31.40;80.40
33699;DHT22;20032;52.436;13.312;2022-08-18T16:36:38;31.20;80.40
33699;DHT22;20032;52.436;13.312;2022-08-18T16:39:04;31.20;79.70
33699;DHT22;20032;52.436;13.312;2022-08-18T16:41:29;31.00;81.60
33699;DHT22;20032;52.436;13.312;2022-08-18T16:43:56;30.50;84.30
33699;DHT22;20032;52.436;13.312;2022-08-18T16:46:23;30.20;85.90
33699;DHT22;20032;52.436;13.312;2022-08-18T16:48:50;29.70;87.00
33699;DHT22;20032;52.436;13.312;2022-08-18T16:51:18;29.50;89.20
33699;DHT22;20032;52.436;13.312;2022-08-18T16:53:44;29.20;90.40